KOGA/OGA METAR and TAF weather

Enter ICAO airport designator
Station Type Date Time Source
KOGA METAR 2021/10/20 06:55 UTC NOAA

KOGA 200655Z AUTO 32014G17KT 10SM OVC014 06/04 A3007 RMK AO2 T00610035 402010040


Station Type Date Time Source
KOGA Decoded METAR 2021/10/20 06:55 UTC NOAA

Ogallala, Searle Field Airport, NE, United States (KOGA) 41-07-11N 101-46-08W
Oct 20, 2021 - 02:55 AM EDT / 2021.10.20 0655 UTC
Wind: from the NW (320 degrees) at 16 MPH (14 KT) gusting to 20 MPH (17 KT):0
Visibility: 10 mile(s):0
Sky conditions: overcast
Temperature: 43.0 F (6.1 C)
Dew Point: 38.3 F (3.5 C)
Relative Humidity: 83%
Pressure (altimeter): 30.07 in. Hg (1018 hPa)
ob: KOGA 200655Z AUTO 32014G17KT 10SM OVC014 06/04 A3007 RMK AO2 T00610035 402010040
cycle: 7

Station Type Date Time Source
KOGA TAF UTC NOAA

Error!

Example: see airport list